createdAt,value
2023-08-21T00:00:27.765Z,61.15
2023-08-21T00:05:32.493Z,61.47
2023-08-21T00:10:35.691Z,62.81
2023-08-21T00:15:39.979Z,62.93
2023-08-21T00:20:45.672Z,61.26
2023-08-21T00:25:49.634Z,60.60
2023-08-21T00:30:52.889Z,61.83
2023-08-21T00:35:57.525Z,61.23
2023-08-21T00:41:00.753Z,60.20
2023-08-21T00:46:04.346Z,63.04
2023-08-21T00:51:09.102Z,62.08
2023-08-21T00:56:12.373Z,62.32
2023-08-21T01:01:17.475Z,61.16
2023-08-21T01:06:22.646Z,62.79
2023-08-21T01:11:31.177Z,60.74
2023-08-21T01:16:34.969Z,60.20
2023-08-21T01:21:39.540Z,64.22
2023-08-21T01:26:44.159Z,65.72
2023-08-21T01:31:52.092Z,65.13
2023-08-21T01:36:55.526Z,65.90
2023-08-21T01:42:01.321Z,65.28
2023-08-21T01:47:05.584Z,64.56
2023-08-21T01:52:08.841Z,66.07
2023-08-21T01:57:13.432Z,66.51
2023-08-21T02:02:16.693Z,66.14
2023-08-21T02:07:19.911Z,64.16
2023-08-21T02:12:24.596Z,64.12
2023-08-21T02:17:28.571Z,67.31
2023-08-21T02:22:31.769Z,67.94
2023-08-21T02:27:36.419Z,69.02
2023-08-21T02:32:41.540Z,67.53
2023-08-21T02:37:45.130Z,65.82
2023-08-21T02:42:49.764Z,65.20
2023-08-21T02:47:53.022Z,64.87
2023-08-21T02:52:56.256Z,65.24
2023-08-21T02:58:00.838Z,67.32
2023-08-21T03:03:04.250Z,67.74
2023-08-21T03:08:07.703Z,71.26
2023-08-21T03:13:12.366Z,69.63
2023-08-21T03:18:15.604Z,69.55
2023-08-21T03:23:18.835Z,68.93
2023-08-21T03:28:23.625Z,69.86
2023-08-21T03:33:26.987Z,66.92
2023-08-21T03:38:30.231Z,68.92
2023-08-21T03:43:34.904Z,71.84
2023-08-21T03:48:38.171Z,71.08
2023-08-21T03:53:41.363Z,71.45
2023-08-21T03:58:46.045Z,73.42
2023-08-21T04:03:49.236Z,70.34
2023-08-21T04:08:52.532Z,69.15
2023-08-21T04:13:57.104Z,72.62
2023-08-21T04:19:00.761Z,70.75
2023-08-21T04:24:03.931Z,72.13
2023-08-21T04:29:08.486Z,70.69
2023-08-21T04:34:11.729Z,70.75
2023-08-21T04:39:14.954Z,72.84
2023-08-21T04:44:20.008Z,71.13
2023-08-21T04:49:23.266Z,71.12
2023-08-21T04:54:26.659Z,72.05
2023-08-21T04:59:31.251Z,72.22
2023-08-21T05:04:34.643Z,70.50
2023-08-21T05:09:37.880Z,69.55
2023-08-21T05:14:42.526Z,64.17
2023-08-21T05:19:45.781Z,64.21
2023-08-21T05:24:49.057Z,63.85
2023-08-21T05:29:53.804Z,65.72
2023-08-21T05:34:57.001Z,63.67
2023-08-21T05:40:00.339Z,60.68
2023-08-21T05:45:05.450Z,62.25
2023-08-21T05:50:10.179Z,56.43
2023-08-21T05:55:13.582Z,60.69
2023-08-21T06:00:19.227Z,58.13
2023-08-21T06:05:22.429Z,56.41
2023-08-21T06:10:25.721Z,55.07
2023-08-21T06:15:30.388Z,55.85
2023-08-21T06:20:33.745Z,55.99
2023-08-21T06:25:38.638Z,55.14
2023-08-21T06:30:43.338Z,53.96
2023-08-21T06:35:46.770Z,53.14
2023-08-21T06:40:49.958Z,51.50
2023-08-21T06:45:54.651Z,51.27
2023-08-21T06:50:58.091Z,50.11
2023-08-21T06:56:01.312Z,49.61
2023-08-21T07:01:06.060Z,47.92
2023-08-21T07:06:09.461Z,46.66
2023-08-21T07:11:15.125Z,45.77
2023-08-21T07:16:20.050Z,46.93
2023-08-21T07:21:33.128Z,45.92
2023-08-21T07:26:37.421Z,44.75
2023-08-21T07:31:42.010Z,44.72
2023-08-21T07:36:45.500Z,45.15
2023-08-21T07:41:48.697Z,44.88
2023-08-21T07:46:53.419Z,44.22
2023-08-21T07:51:57.118Z,44.11
2023-08-21T07:57:00.339Z,45.81
2023-08-21T08:02:05.674Z,45.75
2023-08-21T08:07:09.019Z,46.00
2023-08-21T08:12:12.359Z,45.04
2023-08-21T08:17:17.550Z,44.31
2023-08-21T08:22:20.905Z,46.50
2023-08-21T08:27:24.289Z,45.35
2023-08-21T08:32:29.179Z,44.71
2023-08-21T08:37:32.537Z,45.12
2023-08-21T08:42:36.895Z,44.67
2023-08-21T08:47:43.179Z,44.79
2023-08-21T08:52:46.703Z,43.45
2023-08-21T08:57:49.867Z,43.37
2023-08-21T09:02:54.517Z,43.49
2023-08-21T09:08:13.759Z,41.76
2023-08-21T09:13:18.311Z,41.59
2023-08-21T09:18:23.004Z,42.16
2023-08-21T09:23:26.246Z,41.23
2023-08-21T09:28:29.875Z,41.28
2023-08-21T09:33:35.844Z,40.48
2023-08-21T09:38:41.922Z,40.12
2023-08-21T09:43:45.316Z,39.60
2023-08-21T09:48:50.439Z,38.79
2023-08-21T09:53:56.013Z,39.19
2023-08-21T09:58:59.317Z,39.79
2023-08-21T10:04:04.695Z,39.17
2023-08-21T10:09:08.816Z,37.46
2023-08-21T10:14:12.787Z,38.04
2023-08-21T10:19:19.865Z,37.94
2023-08-21T10:24:36.711Z,38.18
2023-08-21T10:29:41.208Z,38.12
2023-08-21T10:34:54.162Z,37.68
2023-08-21T10:39:58.287Z,37.06
2023-08-21T10:45:12.893Z,36.51
2023-08-21T10:50:17.495Z,37.41
2023-08-21T10:55:21.089Z,35.95
2023-08-21T11:00:25.415Z,36.24
2023-08-21T11:05:30.536Z,35.97
2023-08-21T11:10:34.500Z,36.38
2023-08-21T11:15:37.755Z,35.49
2023-08-21T11:20:44.347Z,34.61
2023-08-21T11:25:48.399Z,34.37
2023-08-21T11:30:51.936Z,34.30
2023-08-21T11:35:58.542Z,34.15
2023-08-21T11:41:03.541Z,33.82
2023-08-21T11:46:07.407Z,33.08
2023-08-21T11:51:12.222Z,32.10
2023-08-21T11:56:16.738Z,31.59
2023-08-21T12:01:20.333Z,30.52
2023-08-21T12:06:26.666Z,29.25
2023-08-21T12:11:30.113Z,28.84
2023-08-21T12:16:33.331Z,29.36
2023-08-21T12:21:38.962Z,27.48
2023-08-21T12:26:50.390Z,28.36
2023-08-21T12:31:54.487Z,27.66
2023-08-21T12:36:59.243Z,27.38
2023-08-21T12:42:02.748Z,26.45
2023-08-21T12:47:06.260Z,26.35
2023-08-21T12:52:11.151Z,26.05
2023-08-21T12:57:15.380Z,26.62
2023-08-21T13:02:18.699Z,26.55
2023-08-21T13:07:23.855Z,26.32
2023-08-21T13:12:27.897Z,26.04
2023-08-21T13:17:31.386Z,25.75
2023-08-21T13:22:48.292Z,26.77
2023-08-21T13:27:52.075Z,26.66
2023-08-21T13:32:55.553Z,26.55
2023-08-21T13:38:01.116Z,26.87
2023-08-21T13:43:04.658Z,26.57
2023-08-21T13:48:08.470Z,26.40
2023-08-21T13:53:16.130Z,26.26
2023-08-21T13:58:19.617Z,25.05
2023-08-21T14:03:22.886Z,25.40
2023-08-21T14:08:27.720Z,25.10
2023-08-21T14:13:31.095Z,25.57
2023-08-21T14:18:34.446Z,24.98
2023-08-21T14:23:40.446Z,24.82
2023-08-21T14:28:45.792Z,24.52
2023-08-21T14:33:49.171Z,25.77
2023-08-21T14:38:54.180Z,25.18
2023-08-21T14:43:57.670Z,24.37
2023-08-21T14:49:01.188Z,24.38
2023-08-21T14:54:06.495Z,25.50
2023-08-21T14:59:12.058Z,25.09
2023-08-21T15:04:15.405Z,25.71
2023-08-21T15:09:20.643Z,26.62
2023-08-21T15:14:23.899Z,26.19
2023-08-21T15:19:27.156Z,27.22
2023-08-21T15:24:31.804Z,27.12
2023-08-21T15:29:35.058Z,27.32
2023-08-21T15:34:38.302Z,27.90
2023-08-21T15:39:43.028Z,27.60
2023-08-21T15:44:46.313Z,27.80
2023-08-21T15:49:49.583Z,27.17
2023-08-21T15:54:54.656Z,27.75
2023-08-21T15:59:58.036Z,27.13
2023-08-21T16:05:01.468Z,28.45
2023-08-21T16:10:07.231Z,28.78
2023-08-21T16:15:11.076Z,29.22
2023-08-21T16:20:16.962Z,30.67
2023-08-21T16:25:22.070Z,32.57
2023-08-21T16:30:25.528Z,33.33
2023-08-21T16:35:28.853Z,32.90
2023-08-21T16:40:34.126Z,32.78
2023-08-21T16:45:37.521Z,33.18
2023-08-21T16:50:41.240Z,33.58
2023-08-21T16:55:46.073Z,33.46
2023-08-21T17:00:49.751Z,34.01
2023-08-21T17:05:53.159Z,34.09
2023-08-21T17:10:57.947Z,34.33
2023-08-21T17:16:01.398Z,34.45
2023-08-21T17:21:04.817Z,34.80
2023-08-21T17:26:09.507Z,34.87
2023-08-21T17:31:12.814Z,35.29
2023-08-21T17:36:16.034Z,35.97
2023-08-21T17:41:20.600Z,35.89
2023-08-21T17:46:24.236Z,35.65
2023-08-21T17:51:27.469Z,36.28
2023-08-21T17:56:32.865Z,37.10
2023-08-21T18:01:36.183Z,37.06
2023-08-21T18:06:39.866Z,37.23
2023-08-21T18:11:44.866Z,37.49
2023-08-21T18:16:50.386Z,37.78
2023-08-21T18:21:53.930Z,38.25
2023-08-21T18:26:58.524Z,38.15
2023-08-21T18:32:01.832Z,39.69
2023-08-21T18:37:05.251Z,40.35
2023-08-21T18:42:10.025Z,40.46
2023-08-21T18:47:13.371Z,41.12
2023-08-21T18:52:16.843Z,41.13
2023-08-21T18:57:21.614Z,42.68
2023-08-21T19:02:25.456Z,42.65
2023-08-21T19:07:28.828Z,41.71
2023-08-21T19:12:33.557Z,43.41
2023-08-21T19:17:37.385Z,44.75
2023-08-21T19:22:42.021Z,44.94
2023-08-21T19:27:47.754Z,44.72
2023-08-21T19:32:53.277Z,45.39
2023-08-21T19:37:56.616Z,45.17
2023-08-21T19:43:01.330Z,46.27
2023-08-21T19:48:05.013Z,46.16
2023-08-21T19:53:08.338Z,45.24
2023-08-21T19:58:13.409Z,47.03
2023-08-21T20:03:16.778Z,47.25
2023-08-21T20:08:24.329Z,49.17
2023-08-21T20:13:29.475Z,48.79
2023-08-21T20:18:32.688Z,50.76
2023-08-21T20:23:36.747Z,51.27
2023-08-21T20:28:41.301Z,49.23
2023-08-21T20:33:44.469Z,48.59
2023-08-21T20:38:47.724Z,50.32
2023-08-21T20:43:52.646Z,51.39
2023-08-21T20:48:55.970Z,51.40
2023-08-21T20:53:59.313Z,51.28
2023-08-21T20:59:04.044Z,52.19
2023-08-21T21:04:07.290Z,52.36
2023-08-21T21:09:10.588Z,53.59
2023-08-21T21:14:15.135Z,52.75
2023-08-21T21:19:18.430Z,55.05
2023-08-21T21:24:21.970Z,55.39
2023-08-21T21:29:26.865Z,55.70
2023-08-21T21:34:30.410Z,55.30
2023-08-21T21:39:34.171Z,55.14
2023-08-21T21:44:38.853Z,54.67
2023-08-21T21:49:42.132Z,56.91
2023-08-21T21:54:45.398Z,57.60
2023-08-21T21:59:50.136Z,57.33
2023-08-21T22:04:53.752Z,58.41
2023-08-21T22:09:57.547Z,59.07
2023-08-21T22:15:02.152Z,57.57
2023-08-21T22:20:06.750Z,58.42
2023-08-21T22:25:10.484Z,59.59
2023-08-21T22:30:15.779Z,61.80
2023-08-21T22:35:19.315Z,61.27
2023-08-21T22:40:26.035Z,61.48
2023-08-21T22:45:30.557Z,61.04
2023-08-21T22:50:33.785Z,60.93
2023-08-21T22:55:37.762Z,59.77
2023-08-21T23:00:42.968Z,60.00
2023-08-21T23:05:53.738Z,63.14
2023-08-21T23:10:57.017Z,62.83
2023-08-21T23:16:02.040Z,62.45
2023-08-21T23:21:06.343Z,63.09
2023-08-21T23:26:09.740Z,63.17
2023-08-21T23:31:14.425Z,63.57
2023-08-21T23:36:17.659Z,64.53
2023-08-21T23:41:21.402Z,63.99
2023-08-21T23:46:26.266Z,64.80
2023-08-21T23:51:29.658Z,65.03
2023-08-21T23:56:33.054Z,63.69
